UTNU

Urgench Airport

Urgench, Uzbekistan
TAF UTNU 210500Z 2106/2206 17010G20KT 8000 NSC TX43/2110Z TN25/2201Z TEMPO 2106/2112 20010KT BKN050 BKN100
Issued Valid From Valid To
Jul-21 @ 05:00 UTC
(5 hours ago)
Jul-21 @ 06:00 UTC
(4 hours ago)
Jul-22 @ 06:00 UTC
(in 20 hours)
Jul-21 @ 06:00 to Jul-22 @ 06:00
TAF UTNU 210500Z 2106/2206 17010G20KT 8000 NSC TX43/2110Z TN25/2201Z
Wind Visibility Clouds
170° at 10 knots
 Gusting to 20 knots
7,998 meters
  • No significant clouds
Temporary Jul-21 @ 06:00 to Jul-21 @ 12:00
TEMPO 2106/2112 20010KT BKN050 BKN100
Wind Clouds
200° at 10 knots
  • Broken at 5,000' AGL
  • Broken at 10,000' AGL
TAF UTNU 210500Z 2106/2206 17010G20KT 8000 NSC TX43/2110Z TN25/2201Z TEMPO 2106/2112 20010KT BKN050 BKN100
Issued Jul-21 @ 05:00 UTC
(5 hours ago)
Valid From Jul-21 @ 06:00 UTC
(4 hours ago)
Valid To Jul-22 @ 06:00 UTC
(in 20 hours)
Jul-21 @ 06:00 - Jul-22 @ 06:00
Wind Visibility
170° at 10 knots
 Gusting to 20 knots
7,998 meters
Clouds
  • No significant clouds
Temporary Jul-21 @ 06:00 - Jul-21 @ 12:00
Wind
200° at 10 knots
Clouds
  • Broken at 5,000' AGL
  • Broken at 10,000' AGL